Location Isle ofWight, ISLE OF WIGHT, UK

ob UISISLE1 181345Z AUTO 22008G14KT CLR 20/16 A3018 RMK SLPNO 

2018.08.18 1345 UTC
Wind from the SW (224 degrees) at 8.8 MPH (8 KT) gusting to 16.0 MPH (14 KT)
Visibility    Mile(s)
Sky Conditions  clear
Temperature 67.1 F (20 C)
Dew Point 60.0 F (16 C)
Relative Humidity 78%
Pressure   30.181 in. Hg (1022 hPa)
Rain  0.00 in.
Daily Rain 0.000 in.

Station Name  Isle of Wight Weather
Longitude, Latitude  -1.27, 50.72
Elevation 45
Station URL http://www.isleofwightweather.co.uk
Software Type WeatherDisplay:10.37R